createdAt,value
2023-04-15T00:01:13.523Z,2.00
2023-04-15T00:03:40.814Z,22.70
2023-04-15T00:06:08.487Z,16.45
2023-04-15T00:08:35.741Z,21.40
2023-04-15T00:11:05.812Z,4.63
2023-04-15T00:13:34.895Z,3.15
2023-04-15T00:16:02.337Z,2.10
2023-04-15T00:18:30.069Z,2.10
2023-04-15T00:20:57.074Z,2.05
2023-04-15T00:23:23.989Z,1.60
2023-04-15T00:25:51.189Z,1.27
2023-04-15T00:28:18.574Z,1.50
2023-04-15T00:30:49.970Z,1.42
2023-04-15T00:33:17.707Z,0.95
2023-04-15T00:35:44.707Z,1.10
2023-04-15T00:38:11.677Z,0.90
2023-04-15T00:40:39.010Z,1.10
2023-04-15T00:43:06.024Z,0.93
2023-04-15T00:45:33.526Z,1.20
2023-04-15T00:48:02.416Z,1.20
2023-04-15T00:50:29.643Z,1.23
2023-04-15T00:52:56.882Z,0.90
2023-04-15T00:55:23.781Z,1.30
2023-04-15T00:57:51.150Z,1.20
2023-04-15T01:00:18.218Z,1.30
2023-04-15T01:02:46.587Z,1.15
2023-04-15T01:05:17.347Z,1.27
2023-04-15T01:07:44.310Z,1.20
2023-04-15T01:10:12.018Z,1.08
2023-04-15T01:12:39.682Z,1.50
2023-04-15T01:15:09.468Z,1.40
2023-04-15T01:17:36.857Z,1.65
2023-04-15T01:20:10.574Z,1.10
2023-04-15T01:22:40.711Z,1.23
2023-04-15T01:25:12.474Z,1.20
2023-04-15T01:27:42.569Z,1.60
2023-04-15T01:30:10.816Z,1.50
2023-04-15T01:32:37.939Z,1.45
2023-04-15T01:35:05.847Z,1.40
2023-04-15T01:37:33.096Z,1.70
2023-04-15T01:40:00.252Z,1.35
2023-04-15T01:42:27.835Z,1.50
2023-04-15T01:44:56.347Z,1.65
2023-04-15T01:47:23.386Z,1.48
2023-04-15T01:49:50.379Z,1.60
2023-04-15T01:52:17.336Z,1.40
2023-04-15T01:54:44.401Z,1.20
2023-04-15T01:57:12.860Z,1.58
2023-04-15T01:59:39.828Z,1.40
2023-04-15T02:02:08.417Z,1.38
2023-04-15T02:04:35.366Z,1.33
2023-04-15T02:07:02.362Z,1.30
2023-04-15T02:09:29.292Z,1.50
2023-04-15T02:11:56.531Z,1.65
2023-04-15T02:14:24.685Z,1.30
2023-04-15T02:16:51.768Z,1.58
2023-04-15T02:19:20.125Z,1.88
2023-04-15T02:21:47.051Z,1.88
2023-04-15T02:24:17.939Z,1.90
2023-04-15T02:26:44.935Z,2.05
2023-04-15T02:29:12.274Z,1.90
2023-04-15T02:31:42.275Z,1.83
2023-04-15T02:34:09.437Z,1.80
2023-04-15T02:36:37.998Z,2.35
2023-04-15T02:39:05.680Z,2.40
2023-04-15T02:41:32.627Z,2.17
2023-04-15T02:43:59.639Z,2.28
2023-04-15T02:46:28.708Z,2.58
2023-04-15T02:48:55.840Z,6.35
2023-04-15T02:51:24.414Z,5.10
2023-04-15T02:53:52.818Z,3.95
2023-04-15T02:56:19.920Z,4.65
2023-04-15T02:58:50.574Z,2.85
2023-04-15T03:01:17.888Z,2.25
2023-04-15T03:03:45.153Z,2.30
2023-04-15T03:06:12.281Z,2.50
2023-04-15T03:08:39.236Z,2.40
2023-04-15T03:11:08.547Z,2.20
2023-04-15T03:13:36.763Z,2.28
2023-04-15T03:16:11.310Z,2.38
2023-04-15T03:18:38.815Z,2.00
2023-04-15T03:21:06.663Z,2.42
2023-04-15T03:23:36.263Z,2.10
2023-04-15T03:26:04.148Z,1.83
2023-04-15T03:28:34.137Z,1.88
2023-04-15T03:31:01.856Z,1.60
2023-04-15T03:33:28.962Z,1.85
2023-04-15T03:35:56.119Z,1.90
2023-04-15T03:38:23.220Z,2.08
2023-04-15T03:40:50.151Z,2.03
2023-04-15T03:43:17.204Z,2.47
2023-04-15T03:45:45.668Z,1.95
2023-04-15T03:48:17.812Z,1.92
2023-04-15T03:50:45.357Z,2.05
2023-04-15T03:53:12.290Z,2.03
2023-04-15T03:55:39.930Z,1.75
2023-04-15T03:58:06.925Z,1.70
2023-04-15T04:00:33.934Z,1.88
2023-04-15T04:03:02.542Z,2.15
2023-04-15T04:05:30.094Z,1.85
2023-04-15T04:07:57.163Z,1.92
2023-04-15T04:10:24.187Z,1.88
2023-04-15T04:12:51.149Z,2.08
2023-04-15T04:15:18.329Z,1.98
2023-04-15T04:17:45.657Z,2.20
2023-04-15T04:20:14.375Z,1.90
2023-04-15T04:22:41.508Z,1.98
2023-04-15T04:25:12.671Z,1.90
2023-04-15T04:27:39.734Z,1.73
2023-04-15T04:30:08.182Z,1.80
2023-04-15T04:32:35.121Z,2.15
2023-04-15T04:35:02.065Z,1.80
2023-04-15T04:37:31.349Z,2.00
2023-04-15T04:39:58.231Z,2.20
2023-04-15T04:42:26.735Z,1.80
2023-04-15T04:44:53.648Z,2.25
2023-04-15T04:47:20.758Z,2.15
2023-04-15T04:49:47.794Z,2.35
2023-04-15T04:52:14.742Z,1.98
2023-04-15T04:54:43.142Z,2.22
2023-04-15T04:57:10.127Z,2.30
2023-04-15T04:59:37.204Z,1.95
2023-04-15T05:02:04.406Z,2.20
2023-04-15T05:04:32.092Z,5.85
2023-04-15T05:06:59.627Z,4.63
2023-04-15T05:09:27.128Z,3.67
2023-04-15T05:11:56.262Z,2.58
2023-04-15T05:14:23.461Z,3.08
2023-04-15T05:16:50.461Z,2.75
2023-04-15T05:19:17.660Z,2.53
2023-04-15T05:21:44.603Z,3.25
2023-04-15T05:24:11.598Z,3.28
2023-04-15T05:26:38.940Z,2.67
2023-04-15T05:29:07.369Z,6.18
2023-04-15T05:31:34.804Z,6.88
2023-04-15T05:34:01.991Z,7.78
2023-04-15T05:36:29.101Z,6.10
2023-04-15T05:38:56.428Z,5.53
2023-04-15T05:41:23.407Z,4.97
2023-04-15T05:43:50.817Z,4.60
2023-04-15T05:46:19.553Z,4.88
2023-04-15T05:48:46.568Z,4.10
2023-04-15T05:51:13.554Z,4.47
2023-04-15T05:53:41.793Z,5.65
2023-04-15T05:56:08.746Z,3.85
2023-04-15T05:58:35.845Z,4.70
2023-04-15T06:01:03.347Z,3.42
2023-04-15T06:03:32.360Z,3.60
2023-04-15T06:05:59.522Z,4.22
2023-04-15T06:08:26.543Z,5.18
2023-04-15T06:10:53.494Z,5.18
2023-04-15T06:13:20.428Z,4.72
2023-04-15T06:15:47.501Z,5.00
2023-04-15T06:18:14.490Z,4.28
2023-04-15T06:20:42.978Z,4.57
2023-04-15T06:23:10.005Z,5.30
2023-04-15T06:25:36.944Z,7.07
2023-04-15T06:28:04.208Z,7.80
2023-04-15T06:30:31.282Z,6.65
2023-04-15T06:32:58.977Z,5.50
2023-04-15T06:35:26.053Z,4.93
2023-04-15T06:37:54.867Z,5.38
2023-04-15T06:40:21.913Z,6.00
2023-04-15T06:42:48.893Z,5.18
2023-04-15T06:45:16.201Z,5.95
2023-04-15T06:47:43.636Z,5.30
2023-04-15T06:50:11.628Z,6.10
2023-04-15T06:52:38.575Z,5.50
2023-04-15T06:55:08.496Z,6.10
2023-04-15T06:57:35.540Z,6.00
2023-04-15T07:00:05.870Z,5.25
2023-04-15T07:02:32.918Z,4.70
2023-04-15T07:05:00.034Z,4.70
2023-04-15T07:07:26.977Z,4.47
2023-04-15T07:09:54.120Z,4.05
2023-04-15T07:12:22.422Z,3.03
2023-04-15T07:14:49.542Z,3.05
2023-04-15T07:17:16.763Z,3.50
2023-04-15T07:19:43.671Z,2.63
2023-04-15T07:22:10.617Z,2.67
2023-04-15T07:24:38.086Z,2.30
2023-04-15T07:27:05.053Z,2.58
2023-04-15T07:29:33.343Z,2.55
2023-04-15T07:32:00.486Z,2.40
2023-04-15T07:34:29.658Z,2.20
2023-04-15T07:36:58.031Z,1.98
2023-04-15T07:39:24.949Z,1.98
2023-04-15T07:41:52.038Z,2.00
2023-04-15T07:44:19.059Z,1.92
2023-04-15T07:46:48.091Z,2.10
2023-04-15T07:49:15.776Z,2.53
2023-04-15T07:51:42.705Z,2.00
2023-04-15T07:54:10.093Z,1.73
2023-04-15T07:56:37.057Z,1.58
2023-04-15T07:59:06.116Z,1.70
2023-04-15T08:01:33.292Z,1.40
2023-04-15T08:04:01.828Z,1.98
2023-04-15T08:06:29.047Z,2.25
2023-04-15T08:08:56.279Z,1.90
2023-04-15T08:11:24.531Z,1.73
2023-04-15T08:13:52.641Z,1.90
2023-04-15T08:16:21.271Z,1.92
2023-04-15T08:18:49.604Z,1.35
2023-04-15T08:21:19.525Z,1.83
2023-04-15T08:23:47.844Z,1.52
2023-04-15T08:26:14.827Z,1.42
2023-04-15T08:28:42.996Z,1.33
2023-04-15T08:31:10.219Z,1.60
2023-04-15T08:33:37.245Z,1.35
2023-04-15T08:36:04.658Z,0.95
2023-04-15T08:38:33.176Z,1.13
2023-04-15T08:41:07.102Z,1.23
2023-04-15T08:43:35.890Z,1.17
2023-04-15T08:46:05.896Z,1.17
2023-04-15T08:48:35.833Z,0.70
2023-04-15T08:51:03.111Z,0.95
2023-04-15T08:53:30.832Z,0.88
2023-04-15T08:56:05.049Z,1.00
2023-04-15T08:58:32.895Z,0.80
2023-04-15T09:01:00.119Z,0.90
2023-04-15T09:03:28.082Z,1.00
2023-04-15T09:05:55.238Z,0.70
2023-04-15T09:08:22.285Z,0.90
2023-04-15T09:10:49.402Z,0.98
2023-04-15T09:13:18.617Z,0.90
2023-04-15T09:15:45.974Z,0.80
2023-04-15T09:18:13.974Z,0.90
2023-04-15T09:20:44.394Z,1.13
2023-04-15T09:23:15.695Z,0.90
2023-04-15T09:25:43.025Z,1.20
2023-04-15T09:28:10.805Z,0.85
2023-04-15T09:30:39.304Z,1.00
2023-04-15T09:33:08.577Z,0.73
2023-04-15T09:35:36.793Z,0.93
2023-04-15T09:38:05.305Z,0.88
2023-04-15T09:40:33.714Z,0.70
2023-04-15T09:43:02.089Z,0.82
2023-04-15T09:45:29.854Z,0.98
2023-04-15T09:47:59.736Z,1.10
2023-04-15T09:50:28.888Z,0.70
2023-04-15T09:52:56.413Z,0.98
2023-04-15T09:55:23.488Z,0.60
2023-04-15T09:57:50.417Z,0.60
2023-04-15T10:00:20.582Z,0.60
2023-04-15T10:02:49.073Z,0.60
2023-04-15T10:05:18.121Z,0.65
2023-04-15T10:07:47.017Z,0.80
2023-04-15T10:10:14.991Z,1.00
2023-04-15T10:12:42.816Z,0.73
2023-04-15T10:15:15.640Z,0.90
2023-04-15T10:17:44.491Z,0.60
2023-04-15T10:20:14.638Z,0.85
2023-04-15T10:22:45.414Z,0.73
2023-04-15T10:25:12.825Z,0.40
2023-04-15T10:27:42.245Z,0.73
2023-04-15T10:30:10.082Z,0.70
2023-04-15T10:32:38.362Z,0.85
2023-04-15T10:35:06.781Z,0.88
2023-04-15T10:37:35.679Z,1.00
2023-04-15T10:40:24.212Z,0.80
2023-04-15T10:42:51.510Z,0.82
2023-04-15T10:45:19.562Z,0.85
2023-04-15T10:47:46.625Z,0.88
2023-04-15T10:50:13.746Z,0.77
2023-04-15T10:52:43.962Z,0.82
2023-04-15T10:55:19.304Z,0.68
2023-04-15T10:57:46.318Z,0.75
2023-04-15T11:00:14.869Z,0.70
2023-04-15T11:02:44.610Z,0.88
2023-04-15T11:05:12.717Z,0.65
2023-04-15T11:07:41.853Z,0.60
2023-04-15T11:10:51.952Z,0.80
2023-04-15T11:13:26.798Z,0.70
2023-04-15T11:15:59.110Z,0.73
2023-04-15T11:18:28.532Z,0.95
2023-04-15T11:20:59.800Z,0.98
2023-04-15T11:23:32.562Z,1.05
2023-04-15T11:26:00.934Z,0.80
2023-04-15T11:28:30.498Z,0.80
2023-04-15T11:30:58.064Z,0.90
2023-04-15T11:33:25.947Z,0.82
2023-04-15T11:35:56.902Z,1.10
2023-04-15T11:38:25.058Z,1.00
2023-04-15T11:40:52.691Z,0.85
2023-04-15T11:43:21.750Z,0.88
2023-04-15T11:45:52.841Z,0.65
2023-04-15T11:48:23.144Z,0.82
2023-04-15T11:50:54.375Z,0.80
2023-04-15T11:53:21.762Z,0.90
2023-04-15T11:55:50.875Z,0.75
2023-04-15T11:58:19.884Z,0.80
2023-04-15T12:00:53.102Z,0.55
2023-04-15T12:03:23.344Z,0.70
2023-04-15T12:06:12.518Z,0.80
2023-04-15T12:09:09.319Z,0.93
2023-04-15T12:11:47.809Z,0.70
2023-04-15T12:14:25.009Z,0.85
2023-04-15T12:16:55.126Z,0.90
2023-04-15T12:19:27.595Z,0.50
2023-04-15T12:22:00.540Z,0.70
2023-04-15T12:24:28.222Z,0.80
2023-04-15T12:26:59.982Z,0.90
2023-04-15T12:29:29.237Z,0.77
2023-04-15T12:31:59.744Z,0.70
2023-04-15T12:34:29.537Z,0.90
2023-04-15T12:36:58.025Z,0.60
2023-04-15T12:39:26.349Z,0.80
2023-04-15T12:41:54.918Z,0.82
2023-04-15T12:44:24.024Z,0.68
2023-04-15T12:46:51.343Z,0.90
2023-04-15T12:49:20.963Z,0.88
2023-04-15T12:51:49.403Z,1.05
2023-04-15T12:54:16.936Z,0.93
2023-04-15T12:56:44.420Z,0.80
2023-04-15T12:59:11.591Z,0.77
2023-04-15T13:01:38.659Z,0.88
2023-04-15T13:04:06.088Z,0.93
2023-04-15T13:06:35.031Z,0.90
2023-04-15T13:09:03.383Z,0.80
2023-04-15T13:11:33.818Z,0.68
2023-04-15T13:14:01.802Z,0.98
2023-04-15T13:16:29.116Z,1.25
2023-04-15T13:18:56.490Z,1.23
2023-04-15T13:21:23.559Z,0.73
2023-04-15T13:23:52.330Z,0.95
2023-04-15T13:26:19.504Z,0.80
2023-04-15T13:28:46.920Z,0.98
2023-04-15T13:31:13.936Z,1.10
2023-04-15T13:33:41.073Z,1.10
2023-04-15T13:36:08.706Z,1.02
2023-04-15T13:38:36.286Z,0.80
2023-04-15T13:41:05.010Z,0.90
2023-04-15T13:43:33.692Z,0.95
2023-04-15T13:46:00.733Z,0.88
2023-04-15T13:48:28.824Z,1.58
2023-04-15T13:50:55.834Z,0.77
2023-04-15T13:53:37.604Z,0.70
2023-04-15T13:56:08.712Z,0.90
2023-04-15T13:58:36.565Z,0.60
2023-04-15T14:01:05.683Z,0.60
2023-04-15T14:03:35.119Z,0.70
2023-04-15T14:06:02.432Z,1.00
2023-04-15T14:08:30.305Z,0.77
2023-04-15T14:10:57.873Z,0.80
2023-04-15T14:13:26.256Z,0.77
2023-04-15T14:15:53.230Z,0.68
2023-04-15T14:18:20.361Z,1.00
2023-04-15T14:20:47.459Z,0.88
2023-04-15T14:23:14.379Z,1.02
2023-04-15T14:25:41.497Z,0.70
2023-04-15T14:28:08.397Z,0.98
2023-04-15T14:30:37.039Z,0.80
2023-04-15T14:33:04.258Z,0.88
2023-04-15T14:35:31.376Z,0.95
2023-04-15T14:37:58.396Z,1.08
2023-04-15T14:40:25.771Z,0.80
2023-04-15T14:42:55.109Z,1.00
2023-04-15T14:45:22.059Z,0.80
2023-04-15T14:47:50.752Z,0.93
2023-04-15T14:50:17.941Z,0.93
2023-04-15T14:52:45.203Z,1.10
2023-04-15T14:55:12.906Z,1.20
2023-04-15T14:57:41.460Z,1.20
2023-04-15T15:00:10.556Z,0.90
2023-04-15T15:02:40.303Z,1.10
2023-04-15T15:05:10.512Z,1.20
2023-04-15T15:07:38.666Z,1.35
2023-04-15T15:10:07.122Z,0.95
2023-04-15T15:12:34.497Z,1.27
2023-04-15T15:15:04.917Z,1.50
2023-04-15T15:17:36.605Z,1.30
2023-04-15T15:20:04.168Z,1.75
2023-04-15T15:22:32.486Z,1.52
2023-04-15T15:24:59.794Z,1.35
2023-04-15T15:27:26.737Z,1.50
2023-04-15T15:29:53.818Z,1.67
2023-04-15T15:32:22.816Z,1.83
2023-04-15T15:34:49.774Z,2.05
2023-04-15T15:37:18.803Z,2.13
2023-04-15T15:39:47.304Z,3.42
2023-04-15T15:42:14.190Z,3.05
2023-04-15T15:44:41.248Z,5.25
2023-04-15T15:47:08.776Z,2.72
2023-04-15T15:49:35.716Z,3.45
2023-04-15T15:52:02.666Z,2.90
2023-04-15T15:54:29.834Z,2.90
2023-04-15T15:56:58.203Z,3.35
2023-04-15T15:59:25.618Z,3.53
2023-04-15T16:01:52.963Z,4.25
2023-04-15T16:04:20.491Z,3.33
2023-04-15T16:06:47.922Z,5.60
2023-04-15T16:09:14.921Z,4.70
2023-04-15T16:11:41.865Z,6.15
2023-04-15T16:14:10.760Z,4.05
2023-04-15T16:16:38.848Z,2.90
2023-04-15T16:19:06.051Z,4.07
2023-04-15T16:21:34.778Z,5.32
2023-04-15T16:24:04.412Z,6.15
2023-04-15T16:26:31.434Z,4.97
2023-04-15T16:28:58.449Z,5.30
2023-04-15T16:31:26.763Z,4.22
2023-04-15T16:33:53.825Z,5.45
2023-04-15T16:36:20.809Z,4.95
2023-04-15T16:38:48.725Z,5.45
2023-04-15T16:41:15.966Z,5.45
2023-04-15T16:43:43.094Z,5.30
2023-04-15T16:46:10.297Z,5.10
2023-04-15T16:48:38.666Z,5.60
2023-04-15T16:51:06.003Z,6.88
2023-04-15T16:53:32.955Z,8.68
2023-04-15T16:55:59.844Z,5.90
2023-04-15T16:58:27.782Z,6.20
2023-04-15T17:00:54.712Z,6.20
2023-04-15T17:03:22.270Z,6.13
2023-04-15T17:05:50.788Z,5.63
2023-04-15T17:08:17.990Z,4.95
2023-04-15T17:10:45.136Z,4.78
2023-04-15T17:13:12.220Z,4.18
2023-04-15T17:15:40.656Z,4.30
2023-04-15T17:18:09.305Z,3.25
2023-04-15T17:20:36.513Z,3.13
2023-04-15T17:23:05.488Z,3.35
2023-04-15T17:25:32.427Z,4.10
2023-04-15T17:27:59.559Z,5.80
2023-04-15T17:30:27.056Z,4.97
2023-04-15T17:32:54.157Z,4.00
2023-04-15T17:35:21.491Z,3.30
2023-04-15T17:37:48.571Z,3.80
2023-04-15T17:40:17.250Z,3.08
2023-04-15T17:42:44.488Z,2.75
2023-04-15T17:45:11.809Z,3.10
2023-04-15T17:47:38.811Z,2.95
2023-04-15T17:50:07.245Z,3.83
2023-04-15T17:52:34.348Z,3.40
2023-04-15T17:55:01.415Z,4.18
2023-04-15T17:57:30.409Z,2.90
2023-04-15T17:59:57.344Z,3.00
2023-04-15T18:02:24.497Z,2.58
2023-04-15T18:04:51.704Z,2.53
2023-04-15T18:07:18.883Z,2.70
2023-04-15T18:09:46.208Z,3.33
2023-04-15T18:12:13.212Z,3.40
2023-04-15T18:14:41.544Z,2.33
2023-04-15T18:17:09.008Z,2.60
2023-04-15T18:19:36.003Z,2.58
2023-04-15T18:22:04.052Z,2.58
2023-04-15T18:24:31.319Z,2.20
2023-04-15T18:26:59.170Z,2.42
2023-04-15T18:29:26.324Z,2.80
2023-04-15T18:31:55.065Z,2.65
2023-04-15T18:34:22.305Z,2.35
2023-04-15T18:36:49.253Z,2.35
2023-04-15T18:39:17.004Z,2.03
2023-04-15T18:41:44.029Z,2.47
2023-04-15T18:44:10.988Z,2.55
2023-04-15T18:46:37.961Z,2.47
2023-04-15T18:49:06.605Z,2.75
2023-04-15T18:51:34.054Z,2.78
2023-04-15T18:54:01.326Z,3.05
2023-04-15T18:56:28.289Z,3.85
2023-04-15T18:59:18.922Z,3.78
2023-04-15T19:01:42.302Z,3.58
2023-04-15T19:04:11.315Z,3.60
2023-04-15T19:06:38.388Z,3.88
2023-04-15T19:09:05.533Z,3.40
2023-04-15T19:11:32.693Z,3.75
2023-04-15T19:14:00.742Z,3.85
2023-04-15T19:16:27.776Z,9.93
2023-04-15T19:18:54.728Z,14.27
2023-04-15T19:21:23.044Z,22.42
2023-04-15T19:23:50.311Z,18.98
2023-04-15T19:26:17.311Z,18.35
2023-04-15T19:28:44.253Z,8.95
2023-04-15T19:31:11.346Z,4.75
2023-04-15T19:33:38.870Z,6.95
2023-04-15T19:36:07.552Z,8.07
2023-04-15T19:38:36.931Z,8.48
2023-04-15T19:41:03.987Z,6.47
2023-04-15T19:43:32.368Z,5.13
2023-04-15T19:45:59.897Z,4.70
2023-04-15T19:48:27.047Z,4.88
2023-04-15T19:50:54.065Z,10.30
2023-04-15T19:53:21.085Z,10.00
2023-04-15T19:55:49.473Z,8.25
2023-04-15T19:58:16.634Z,7.07
2023-04-15T20:00:43.580Z,5.40
2023-04-15T20:03:11.113Z,3.90
2023-04-15T20:05:38.154Z,4.28
2023-04-15T20:08:05.383Z,3.88
2023-04-15T20:10:32.483Z,4.35
2023-04-15T20:13:00.909Z,4.88
2023-04-15T20:15:27.927Z,4.22
2023-04-15T20:17:55.039Z,3.33
2023-04-15T20:20:22.384Z,3.05
2023-04-15T20:22:49.362Z,3.17
2023-04-15T20:25:16.336Z,2.80
2023-04-15T20:27:43.298Z,2.60
2023-04-15T20:30:11.995Z,2.38
2023-04-15T20:32:39.048Z,2.60
2023-04-15T20:35:07.026Z,2.67
2023-04-15T20:37:34.546Z,2.40
2023-04-15T20:40:02.234Z,2.50
2023-04-15T20:42:33.486Z,2.40
2023-04-15T20:45:01.221Z,2.58
2023-04-15T20:47:29.671Z,2.40
2023-04-15T20:49:56.844Z,2.53
2023-04-15T20:52:23.855Z,3.10
2023-04-15T20:54:51.364Z,2.47
2023-04-15T20:57:18.501Z,2.55
2023-04-15T20:59:45.546Z,3.17
2023-04-15T21:02:12.574Z,2.67
2023-04-15T21:04:41.058Z,5.55
2023-04-15T21:07:08.081Z,5.63
2023-04-15T21:09:35.028Z,3.08
2023-04-15T21:12:02.403Z,2.55
2023-04-15T21:14:29.808Z,2.85
2023-04-15T21:16:57.205Z,2.65
2023-04-15T21:19:24.123Z,2.95
2023-04-15T21:21:52.545Z,2.90
2023-04-15T21:24:19.580Z,2.70
2023-04-15T21:26:46.595Z,2.58
2023-04-15T21:29:13.697Z,2.78
2023-04-15T21:31:40.917Z,2.58
2023-04-15T21:34:07.996Z,2.90
2023-04-15T21:36:35.206Z,2.53
2023-04-15T21:39:04.150Z,2.72
2023-04-15T21:41:31.481Z,2.65
2023-04-15T21:43:58.603Z,2.53
2023-04-15T21:46:32.811Z,2.72
2023-04-15T21:49:02.086Z,2.70
2023-04-15T21:51:32.684Z,2.40
2023-04-15T21:53:59.701Z,2.28
2023-04-15T21:56:28.056Z,2.60
2023-04-15T21:58:56.984Z,2.85
2023-04-15T22:01:24.403Z,2.97
2023-04-15T22:03:52.082Z,2.85
2023-04-15T22:06:19.168Z,2.78
2023-04-15T22:08:56.272Z,3.10
2023-04-15T22:11:28.777Z,4.35
2023-04-15T22:13:57.798Z,3.60
2023-04-15T22:16:25.482Z,3.35
2023-04-15T22:18:52.601Z,3.33
2023-04-15T22:21:19.825Z,4.75
2023-04-15T22:23:47.617Z,4.85
2023-04-15T22:26:14.816Z,3.60
2023-04-15T22:28:41.928Z,3.20
2023-04-15T22:31:10.517Z,3.10
2023-04-15T22:33:38.762Z,3.25
2023-04-15T22:36:06.300Z,2.90
2023-04-15T22:38:33.289Z,2.60
2023-04-15T22:41:00.258Z,2.47
2023-04-15T22:43:27.724Z,2.95
2023-04-15T22:45:55.142Z,2.95
2023-04-15T22:48:23.846Z,3.30
2023-04-15T22:50:50.900Z,3.05
2023-04-15T22:53:18.112Z,3.20
2023-04-15T22:55:45.838Z,3.15
2023-04-15T22:58:12.847Z,3.00
2023-04-15T23:00:39.966Z,3.63
2023-04-15T23:03:07.293Z,3.10
2023-04-15T23:05:36.066Z,3.05
2023-04-15T23:08:03.490Z,3.20
2023-04-15T23:10:30.689Z,3.28
2023-04-15T23:12:57.817Z,3.40
2023-04-15T23:15:25.071Z,3.30
2023-04-15T23:17:52.017Z,4.03
2023-04-15T23:20:18.969Z,3.60
2023-04-15T23:22:47.352Z,3.88
2023-04-15T23:25:14.346Z,3.58
2023-04-15T23:27:41.249Z,3.78
2023-04-15T23:30:08.889Z,3.35
2023-04-15T23:32:36.043Z,3.35
2023-04-15T23:35:03.255Z,3.33
2023-04-15T23:37:31.038Z,3.25
2023-04-15T23:39:59.367Z,3.53
2023-04-15T23:42:27.113Z,3.47
2023-04-15T23:44:54.083Z,3.50
2023-04-15T23:47:21.490Z,3.78
2023-04-15T23:49:48.421Z,3.65
2023-04-15T23:52:15.398Z,3.53
2023-04-15T23:54:42.360Z,3.72
2023-04-15T23:57:10.770Z,3.00
2023-04-15T23:59:37.706Z,3.83
